createdAt,value
2023-03-29T00:01:06.598Z,86.40
2023-03-29T00:03:36.372Z,86.80
2023-03-29T00:06:05.637Z,87.90
2023-03-29T00:08:35.046Z,87.20
2023-03-29T00:11:03.670Z,87.10
2023-03-29T00:13:32.311Z,87.40
2023-03-29T00:16:00.614Z,88.00
2023-03-29T00:18:28.941Z,87.70
2023-03-29T00:21:00.209Z,87.80
2023-03-29T00:23:29.000Z,88.00
2023-03-29T00:25:57.704Z,87.70
2023-03-29T00:28:26.084Z,86.60
2023-03-29T00:30:55.491Z,86.20
2023-03-29T00:33:23.772Z,85.90
2023-03-29T00:35:54.614Z,85.80
2023-03-29T00:38:24.363Z,86.10
2023-03-29T00:40:52.712Z,86.10
2023-03-29T00:43:21.058Z,86.60
2023-03-29T00:45:49.567Z,86.50
2023-03-29T00:48:21.651Z,87.40
2023-03-29T00:50:53.123Z,87.20
2023-03-29T00:53:26.222Z,87.20
2023-03-29T00:55:59.749Z,86.50
2023-03-29T00:58:35.766Z,86.60
2023-03-29T01:01:08.788Z,86.70
2023-03-29T01:03:46.368Z,87.10
2023-03-29T01:06:18.027Z,87.40
2023-03-29T01:08:54.268Z,87.20
2023-03-29T01:11:26.612Z,87.20
2023-03-29T01:13:59.551Z,87.10
2023-03-29T01:16:30.496Z,87.30
2023-03-29T01:18:59.255Z,87.40
2023-03-29T01:21:32.350Z,88.10
2023-03-29T01:24:34.304Z,88.90
2023-03-29T01:27:09.817Z,90.90
2023-03-29T01:29:45.530Z,90.00
2023-03-29T01:32:18.113Z,90.40
2023-03-29T01:34:51.558Z,90.70
2023-03-29T01:37:24.943Z,91.20
2023-03-29T01:39:54.202Z,90.80
2023-03-29T01:42:40.081Z,90.80
2023-03-29T01:45:17.148Z,91.10
2023-03-29T01:47:50.348Z,91.40
2023-03-29T01:50:23.464Z,91.60
2023-03-29T01:52:57.940Z,91.70
2023-03-29T01:55:29.844Z,91.80
2023-03-29T01:58:01.272Z,92.00
2023-03-29T02:00:31.706Z,92.20
2023-03-29T02:03:05.785Z,92.40
2023-03-29T02:05:35.772Z,92.70
2023-03-29T02:08:06.879Z,92.80
2023-03-29T02:10:36.713Z,92.70
2023-03-29T02:13:05.517Z,92.90
2023-03-29T02:15:36.435Z,92.90
2023-03-29T02:18:06.650Z,92.90
2023-03-29T02:20:38.908Z,92.90
2023-03-29T02:23:13.653Z,92.80
2023-03-29T02:25:43.534Z,93.00
2023-03-29T02:28:12.576Z,92.70
2023-03-29T02:30:51.328Z,92.70
2023-03-29T02:33:24.114Z,92.80
2023-03-29T02:35:56.793Z,92.60
2023-03-29T02:38:27.829Z,92.70
2023-03-29T02:40:57.974Z,92.60
2023-03-29T02:43:28.291Z,92.60
2023-03-29T02:45:58.232Z,92.40
2023-03-29T02:48:29.450Z,92.30
2023-03-29T02:51:02.291Z,92.10
2023-03-29T02:53:35.968Z,91.90
2023-03-29T02:56:04.702Z,92.10
2023-03-29T02:58:33.027Z,91.70
2023-03-29T03:01:05.162Z,91.50
2023-03-29T03:03:33.578Z,91.50
2023-03-29T03:06:03.288Z,91.40
2023-03-29T03:08:32.289Z,91.30
2023-03-29T03:11:01.146Z,91.30
2023-03-29T03:13:29.414Z,91.40
2023-03-29T03:15:57.930Z,91.50
2023-03-29T03:18:27.801Z,91.60
2023-03-29T03:20:57.180Z,91.80
2023-03-29T03:23:25.962Z,91.60
2023-03-29T03:25:55.267Z,91.50
2023-03-29T03:28:24.202Z,91.40
2023-03-29T03:30:52.556Z,91.30
2023-03-29T03:33:40.950Z,91.20
2023-03-29T03:36:34.649Z,91.10
2023-03-29T03:39:05.748Z,90.80
2023-03-29T03:41:34.414Z,90.80
2023-03-29T03:44:03.165Z,90.70
2023-03-29T03:46:32.252Z,90.60
2023-03-29T03:49:03.076Z,90.70
2023-03-29T03:51:34.335Z,90.80
2023-03-29T03:54:02.672Z,90.80
2023-03-29T03:56:34.210Z,90.80
2023-03-29T03:59:16.673Z,90.90
2023-03-29T04:02:00.533Z,91.00
2023-03-29T04:04:30.889Z,91.10
2023-03-29T04:07:04.197Z,91.20
2023-03-29T04:09:55.464Z,91.20
2023-03-29T04:12:42.876Z,91.40
2023-03-29T04:15:12.179Z,91.70
2023-03-29T04:17:45.997Z,91.80
2023-03-29T04:20:32.702Z,92.00
2023-03-29T04:23:02.108Z,92.40
2023-03-29T04:25:31.646Z,92.40
2023-03-29T04:27:59.959Z,92.70
2023-03-29T04:30:48.221Z,93.00
2023-03-29T04:33:36.795Z,93.20
2023-03-29T04:36:07.486Z,93.40
2023-03-29T04:38:36.739Z,93.70
2023-03-29T04:41:05.857Z,93.90
2023-03-29T04:43:57.321Z,94.00
2023-03-29T04:46:27.634Z,94.30
2023-03-29T04:49:14.484Z,94.70
2023-03-29T04:51:48.779Z,94.70
2023-03-29T04:54:21.251Z,94.80
2023-03-29T04:57:09.652Z,95.00
2023-03-29T05:00:14.332Z,95.30
2023-03-29T05:03:01.330Z,95.30
2023-03-29T05:05:33.039Z,95.40
2023-03-29T05:08:04.829Z,95.50
2023-03-29T05:10:45.813Z,95.60
2023-03-29T05:13:15.263Z,95.70
2023-03-29T05:15:44.010Z,95.90
2023-03-29T05:18:12.307Z,96.20
2023-03-29T05:20:40.656Z,96.20
2023-03-29T05:23:12.499Z,96.30
2023-03-29T05:25:59.093Z,96.60
2023-03-29T05:28:27.374Z,97.50
2023-03-29T05:31:04.604Z,97.40
2023-03-29T05:33:35.517Z,97.50
2023-03-29T05:36:07.988Z,97.80
2023-03-29T05:38:41.491Z,98.00
2023-03-29T05:41:10.788Z,98.20
2023-03-29T05:43:58.182Z,98.50
2023-03-29T05:46:28.637Z,98.60
2023-03-29T05:48:59.318Z,98.90
2023-03-29T05:51:45.658Z,98.70
2023-03-29T05:54:16.700Z,98.80
2023-03-29T05:56:45.448Z,98.80
2023-03-29T05:59:17.663Z,98.90
2023-03-29T06:01:47.126Z,99.00
2023-03-29T06:04:19.103Z,99.10
2023-03-29T06:06:58.047Z,99.20
2023-03-29T06:09:27.708Z,99.30
2023-03-29T06:12:01.847Z,99.60
2023-03-29T06:14:36.409Z,99.70
2023-03-29T06:17:19.009Z,99.60
2023-03-29T06:19:48.178Z,99.60
2023-03-29T06:22:18.513Z,99.90
2023-03-29T06:24:48.203Z,99.90
2023-03-29T06:27:24.588Z,99.90
2023-03-29T06:29:53.124Z,99.90
2023-03-29T06:32:22.158Z,99.90
2023-03-29T06:35:00.457Z,99.90
2023-03-29T06:37:33.926Z,99.90
2023-03-29T06:40:17.516Z,99.90
2023-03-29T06:42:47.182Z,99.90
2023-03-29T06:45:36.959Z,99.90
2023-03-29T06:48:09.841Z,99.90
2023-03-29T06:50:38.399Z,99.90
2023-03-29T06:53:11.757Z,99.90
2023-03-29T06:55:42.576Z,99.90
2023-03-29T06:58:34.386Z,99.90
2023-03-29T07:01:10.004Z,99.90
2023-03-29T07:03:47.326Z,99.90
2023-03-29T07:06:20.385Z,99.90
2023-03-29T07:08:52.291Z,99.90
2023-03-29T07:11:35.349Z,99.90
2023-03-29T07:14:17.729Z,99.90
2023-03-29T07:16:47.394Z,99.90
2023-03-29T07:19:24.220Z,99.90
2023-03-29T07:21:53.346Z,99.90
2023-03-29T07:24:24.655Z,99.90
2023-03-29T07:27:03.461Z,99.90
2023-03-29T07:29:33.677Z,99.90
2023-03-29T07:32:01.917Z,99.90
2023-03-29T07:34:46.181Z,99.90
2023-03-29T07:37:21.905Z,99.90
2023-03-29T07:39:54.143Z,99.90
2023-03-29T07:42:43.851Z,99.90
2023-03-29T07:45:17.759Z,99.90
2023-03-29T07:48:00.267Z,99.80
2023-03-29T07:50:35.363Z,99.50
2023-03-29T07:53:06.353Z,99.60
2023-03-29T07:55:34.996Z,99.00
2023-03-29T07:58:30.586Z,98.30
2023-03-29T08:01:00.587Z,96.70
2023-03-29T08:03:48.113Z,96.30
2023-03-29T08:06:17.183Z,95.30
2023-03-29T08:08:45.639Z,94.50
2023-03-29T08:11:17.736Z,93.50
2023-03-29T08:14:05.596Z,93.40
2023-03-29T08:16:33.924Z,93.10
2023-03-29T08:19:08.639Z,92.70
2023-03-29T08:21:53.910Z,92.40
2023-03-29T08:24:25.498Z,92.00
2023-03-29T08:26:59.134Z,91.50
2023-03-29T08:29:29.245Z,90.90
2023-03-29T08:31:58.785Z,90.60
2023-03-29T08:34:27.273Z,90.60
2023-03-29T08:37:09.808Z,90.00
2023-03-29T08:39:43.437Z,89.80
2023-03-29T08:42:49.194Z,89.80
2023-03-29T08:45:27.444Z,90.10
2023-03-29T08:48:09.842Z,89.30
2023-03-29T08:50:42.093Z,88.50
2023-03-29T08:53:14.858Z,88.60
2023-03-29T08:56:11.734Z,85.90
2023-03-29T08:59:19.641Z,86.80
2023-03-29T09:01:54.426Z,87.20
2023-03-29T09:04:28.468Z,88.00
2023-03-29T09:07:10.066Z,89.00
2023-03-29T09:09:43.770Z,88.20
2023-03-29T09:12:44.696Z,88.50
2023-03-29T09:15:19.464Z,87.70
2023-03-29T09:18:10.656Z,84.50
2023-03-29T09:20:48.774Z,82.10
2023-03-29T09:23:37.722Z,82.50
2023-03-29T09:26:32.559Z,81.50
2023-03-29T09:29:45.347Z,81.40
2023-03-29T09:32:20.761Z,80.10
2023-03-29T09:35:02.213Z,78.40
2023-03-29T09:37:34.517Z,78.20
2023-03-29T09:40:11.072Z,78.10
2023-03-29T09:42:52.642Z,78.30
2023-03-29T09:45:20.952Z,78.50
2023-03-29T09:47:56.099Z,77.80
2023-03-29T09:50:34.293Z,77.60
2023-03-29T09:53:06.011Z,77.30
2023-03-29T09:55:40.673Z,76.80
2023-03-29T09:58:25.660Z,75.80
2023-03-29T10:00:59.049Z,74.90
2023-03-29T10:03:29.577Z,75.00
2023-03-29T10:06:21.364Z,73.70
2023-03-29T10:08:59.088Z,73.30
2023-03-29T10:11:38.293Z,73.20
2023-03-29T10:14:12.737Z,72.20
2023-03-29T10:16:46.103Z,70.30
2023-03-29T10:19:23.108Z,70.30
2023-03-29T10:21:53.914Z,70.60
2023-03-29T10:24:23.379Z,70.40
2023-03-29T10:26:56.968Z,69.30
2023-03-29T10:29:26.417Z,68.50
2023-03-29T10:31:55.487Z,67.70
2023-03-29T10:34:28.082Z,66.20
2023-03-29T10:37:01.148Z,65.80
2023-03-29T10:39:34.710Z,64.80
2023-03-29T10:42:05.139Z,65.20
2023-03-29T10:44:36.553Z,65.00
2023-03-29T10:47:16.311Z,65.80
2023-03-29T10:49:47.810Z,63.50
2023-03-29T10:52:18.257Z,64.50
2023-03-29T10:54:47.426Z,63.60
2023-03-29T10:57:23.689Z,62.30
2023-03-29T10:59:58.317Z,62.60
2023-03-29T11:02:49.271Z,63.10
2023-03-29T11:05:25.569Z,62.90
2023-03-29T11:08:21.851Z,61.30
2023-03-29T11:10:58.359Z,59.90
2023-03-29T11:13:35.132Z,60.50
2023-03-29T11:16:14.799Z,58.00
2023-03-29T11:18:54.159Z,58.20
2023-03-29T11:21:29.300Z,57.80
2023-03-29T11:24:15.223Z,57.20
2023-03-29T11:26:57.767Z,56.70
2023-03-29T11:29:30.932Z,56.60
2023-03-29T11:32:05.868Z,57.60
2023-03-29T11:34:43.644Z,57.70
2023-03-29T11:37:20.376Z,58.10
2023-03-29T11:40:01.446Z,58.10
2023-03-29T11:42:33.193Z,57.90
2023-03-29T11:45:05.451Z,57.20
2023-03-29T11:47:37.351Z,55.70
2023-03-29T11:50:15.924Z,55.40
2023-03-29T11:52:48.153Z,54.20
2023-03-29T11:55:22.620Z,54.80
2023-03-29T11:57:56.641Z,54.80
2023-03-29T12:00:28.512Z,55.10
2023-03-29T12:03:02.335Z,55.20
2023-03-29T12:05:34.822Z,56.00
2023-03-29T12:08:08.601Z,54.70
2023-03-29T12:10:42.214Z,54.50
2023-03-29T12:13:17.860Z,55.20
2023-03-29T12:15:53.908Z,55.20
2023-03-29T12:18:26.340Z,55.70
2023-03-29T12:20:58.586Z,55.70
2023-03-29T12:23:32.572Z,55.10
2023-03-29T12:26:08.732Z,53.10
2023-03-29T12:28:56.808Z,52.10
2023-03-29T12:31:32.727Z,51.10
2023-03-29T12:34:17.001Z,51.70
2023-03-29T12:37:33.470Z,51.70
2023-03-29T12:40:22.360Z,51.60
2023-03-29T12:43:31.477Z,52.50
2023-03-29T12:46:18.746Z,52.70
2023-03-29T12:48:50.373Z,53.50
2023-03-29T12:51:21.592Z,54.00
2023-03-29T12:53:52.066Z,54.80
2023-03-29T12:56:23.491Z,55.00
2023-03-29T12:59:17.693Z,54.80
2023-03-29T13:01:59.538Z,54.40
2023-03-29T13:04:39.103Z,54.30
2023-03-29T13:07:14.528Z,52.60
2023-03-29T13:09:50.420Z,53.50
2023-03-29T13:12:27.449Z,53.30
2023-03-29T13:15:00.339Z,53.90
2023-03-29T13:17:36.068Z,53.90
2023-03-29T13:20:28.052Z,52.80
2023-03-29T13:23:08.199Z,52.30
2023-03-29T13:25:58.493Z,52.00
2023-03-29T13:28:38.066Z,51.10
2023-03-29T13:31:20.056Z,51.90
2023-03-29T13:34:04.587Z,50.50
2023-03-29T13:36:46.664Z,50.80
2023-03-29T13:39:20.521Z,49.90
2023-03-29T13:41:51.089Z,50.30
2023-03-29T13:44:27.632Z,49.00
2023-03-29T13:47:28.287Z,42.10
2023-03-29T13:50:00.323Z,40.20
2023-03-29T13:52:31.801Z,40.60
2023-03-29T13:55:06.160Z,39.40
2023-03-29T13:57:39.629Z,39.50
2023-03-29T14:00:17.151Z,38.00
2023-03-29T14:02:51.568Z,35.00
2023-03-29T14:05:24.572Z,33.00
2023-03-29T14:07:54.446Z,31.20
2023-03-29T14:10:26.947Z,29.20
2023-03-29T14:12:56.802Z,28.20
2023-03-29T14:15:28.075Z,28.90
2023-03-29T14:18:00.689Z,29.60
2023-03-29T14:20:31.294Z,29.90
2023-03-29T14:22:59.591Z,30.80
2023-03-29T14:25:30.413Z,31.70
2023-03-29T14:27:58.564Z,32.10
2023-03-29T14:30:28.692Z,32.00
2023-03-29T14:32:58.357Z,31.60
2023-03-29T14:35:33.236Z,30.70
2023-03-29T14:38:03.915Z,29.60
2023-03-29T14:40:33.929Z,30.40
2023-03-29T14:43:07.116Z,30.10
2023-03-29T14:45:35.575Z,29.60
2023-03-29T14:48:05.746Z,29.40
2023-03-29T14:50:34.731Z,28.90
2023-03-29T14:53:03.964Z,29.20
2023-03-29T14:55:32.884Z,29.20
2023-03-29T14:58:01.303Z,29.40
2023-03-29T15:00:31.500Z,29.50
2023-03-29T15:03:01.718Z,29.50
2023-03-29T15:05:36.915Z,29.70
2023-03-29T15:08:07.395Z,29.70
2023-03-29T15:10:37.283Z,29.70
2023-03-29T15:13:07.807Z,29.80
2023-03-29T15:15:39.007Z,30.40
2023-03-29T15:18:09.240Z,30.90
2023-03-29T15:20:41.047Z,31.60
2023-03-29T15:23:21.083Z,32.40
2023-03-29T15:25:53.825Z,32.80
2023-03-29T15:28:28.229Z,33.50
2023-03-29T15:31:07.885Z,34.10
2023-03-29T15:33:38.188Z,34.80
2023-03-29T15:36:09.694Z,35.00
2023-03-29T15:38:44.513Z,35.40
2023-03-29T15:41:15.366Z,35.70
2023-03-29T15:43:44.338Z,36.30
2023-03-29T15:46:14.401Z,36.70
2023-03-29T15:48:43.361Z,37.10
2023-03-29T15:51:13.446Z,37.40
2023-03-29T15:53:42.224Z,38.00
2023-03-29T15:56:16.379Z,38.50
2023-03-29T15:58:45.068Z,38.80
2023-03-29T16:01:23.621Z,39.30
2023-03-29T16:03:52.109Z,39.70
2023-03-29T16:06:23.930Z,40.10
2023-03-29T16:08:52.303Z,40.40
2023-03-29T16:11:21.052Z,40.60
2023-03-29T16:13:49.449Z,41.70
2023-03-29T16:16:17.827Z,41.40
2023-03-29T16:18:46.040Z,41.60
2023-03-29T16:21:16.231Z,41.90
2023-03-29T16:23:47.047Z,42.20
2023-03-29T16:26:16.615Z,42.40
2023-03-29T16:28:45.497Z,42.70
2023-03-29T16:31:14.713Z,42.80
2023-03-29T16:33:43.260Z,43.00
2023-03-29T16:36:12.440Z,43.10
2023-03-29T16:38:40.827Z,43.10
2023-03-29T16:41:13.495Z,43.10
2023-03-29T16:43:41.669Z,43.10
2023-03-29T16:46:11.342Z,43.00
2023-03-29T16:48:39.897Z,42.90
2023-03-29T16:51:08.562Z,42.70
2023-03-29T16:53:36.976Z,42.70
2023-03-29T16:56:06.181Z,42.80
2023-03-29T16:58:36.208Z,42.90
2023-03-29T17:01:11.924Z,43.00
2023-03-29T17:03:41.069Z,43.60
2023-03-29T17:06:11.655Z,43.70
2023-03-29T17:08:42.510Z,44.00
2023-03-29T17:11:11.875Z,44.60
2023-03-29T17:13:41.496Z,45.00
2023-03-29T17:16:10.105Z,45.40
2023-03-29T17:18:38.608Z,45.50
2023-03-29T17:21:07.985Z,45.50
2023-03-29T17:23:36.169Z,45.40
2023-03-29T17:26:04.657Z,45.40
2023-03-29T17:28:33.209Z,45.50
2023-03-29T17:31:06.980Z,45.60
2023-03-29T17:33:36.035Z,45.60
2023-03-29T17:36:05.653Z,45.80
2023-03-29T17:38:34.740Z,46.00
2023-03-29T17:41:04.482Z,46.20
2023-03-29T17:43:32.883Z,46.70
2023-03-29T17:46:01.505Z,47.10
2023-03-29T17:48:33.003Z,47.50
2023-03-29T17:51:02.395Z,48.60
2023-03-29T17:53:30.756Z,48.50
2023-03-29T17:55:59.035Z,49.00
2023-03-29T17:58:27.550Z,49.70
2023-03-29T18:00:56.139Z,50.60
2023-03-29T18:03:24.512Z,51.20
2023-03-29T18:05:54.285Z,51.70
2023-03-29T18:08:22.432Z,52.60
2023-03-29T18:10:50.937Z,53.10
2023-03-29T18:13:25.554Z,53.10
2023-03-29T18:15:56.701Z,53.10
2023-03-29T18:18:25.646Z,53.70
2023-03-29T18:20:55.542Z,53.80
2023-03-29T18:23:23.882Z,54.30
2023-03-29T18:25:52.098Z,54.30
2023-03-29T18:28:20.524Z,54.30
2023-03-29T18:30:52.104Z,54.30
2023-03-29T18:33:20.768Z,54.40
2023-03-29T18:35:50.598Z,54.40
2023-03-29T18:38:22.445Z,54.50
2023-03-29T18:40:52.570Z,54.50
2023-03-29T18:43:21.023Z,54.50
2023-03-29T18:45:49.369Z,54.40
2023-03-29T18:48:17.762Z,54.30
2023-03-29T18:50:46.994Z,54.40
2023-03-29T18:53:16.692Z,54.40
2023-03-29T18:55:47.465Z,54.50
2023-03-29T18:58:17.770Z,54.60
2023-03-29T19:00:46.108Z,54.70
2023-03-29T19:03:14.658Z,54.90
2023-03-29T19:05:43.418Z,54.90
2023-03-29T19:08:11.623Z,54.90
2023-03-29T19:10:41.081Z,55.00
2023-03-29T19:13:10.947Z,54.90
2023-03-29T19:15:40.575Z,55.00
2023-03-29T19:18:09.277Z,55.20
2023-03-29T19:20:37.719Z,55.20
2023-03-29T19:23:06.337Z,55.20
2023-03-29T19:25:35.549Z,55.20
2023-03-29T19:28:04.913Z,55.10
2023-03-29T19:30:36.529Z,55.00
2023-03-29T19:33:04.900Z,54.50
2023-03-29T19:35:38.362Z,54.20
2023-03-29T19:38:07.093Z,53.90
2023-03-29T19:40:36.458Z,53.30
2023-03-29T19:43:05.117Z,53.00
2023-03-29T19:45:34.787Z,52.50
2023-03-29T19:48:03.784Z,52.80
2023-03-29T19:50:32.574Z,51.90
2023-03-29T19:53:01.576Z,51.50
2023-03-29T19:55:29.840Z,51.40
2023-03-29T19:57:58.839Z,51.10
2023-03-29T20:00:27.420Z,51.00
2023-03-29T20:02:57.843Z,50.90
2023-03-29T20:05:26.166Z,50.70
2023-03-29T20:07:54.634Z,50.80
2023-03-29T20:10:22.895Z,50.60
2023-03-29T20:12:51.189Z,50.60
2023-03-29T20:15:19.898Z,50.40
2023-03-29T20:17:52.045Z,50.30
2023-03-29T20:20:24.034Z,50.20
2023-03-29T20:22:53.958Z,50.10
2023-03-29T20:25:22.229Z,50.20
2023-03-29T20:27:51.432Z,50.00
2023-03-29T20:30:19.721Z,50.00
2023-03-29T20:32:47.942Z,50.20
2023-03-29T20:35:16.762Z,50.20
2023-03-29T20:37:46.490Z,50.40
2023-03-29T20:40:15.622Z,50.60
2023-03-29T20:42:46.183Z,50.80
2023-03-29T20:45:19.442Z,51.00
2023-03-29T20:47:57.595Z,51.20
2023-03-29T20:50:29.741Z,51.40
2023-03-29T20:53:03.311Z,51.60
2023-03-29T20:55:33.341Z,51.80
2023-03-29T20:58:03.009Z,51.90
2023-03-29T21:00:33.638Z,52.20
2023-03-29T21:03:03.722Z,52.50
2023-03-29T21:05:34.135Z,52.70
2023-03-29T21:08:04.351Z,53.10
2023-03-29T21:10:32.853Z,53.30
2023-03-29T21:13:02.585Z,53.50
2023-03-29T21:15:31.924Z,53.70
2023-03-29T21:18:00.797Z,53.90
2023-03-29T21:20:29.226Z,54.20
2023-03-29T21:22:57.650Z,54.50
2023-03-29T21:25:27.247Z,54.60
2023-03-29T21:27:55.478Z,54.70
2023-03-29T21:30:23.637Z,55.00
2023-03-29T21:32:52.149Z,55.20
2023-03-29T21:35:20.620Z,55.20
2023-03-29T21:37:49.010Z,55.60
2023-03-29T21:40:17.273Z,55.60
2023-03-29T21:42:46.884Z,55.90
2023-03-29T21:45:15.186Z,56.20
2023-03-29T21:47:43.961Z,56.30
2023-03-29T21:50:12.814Z,56.40
2023-03-29T21:52:40.996Z,56.80
2023-03-29T21:55:09.654Z,56.80
2023-03-29T21:57:37.899Z,56.90
2023-03-29T22:00:11.432Z,57.00
2023-03-29T22:02:40.394Z,57.70
2023-03-29T22:05:09.218Z,57.10
2023-03-29T22:07:38.778Z,57.40
2023-03-29T22:10:08.282Z,57.50
2023-03-29T22:12:38.510Z,57.70
2023-03-29T22:15:11.403Z,57.90
2023-03-29T22:17:41.279Z,58.10
2023-03-29T22:20:13.846Z,58.30
2023-03-29T22:22:45.878Z,58.60
2023-03-29T22:25:14.279Z,58.70
2023-03-29T22:27:43.930Z,58.70
2023-03-29T22:30:14.850Z,58.80
2023-03-29T22:32:43.908Z,58.90
2023-03-29T22:35:12.137Z,59.20
2023-03-29T22:37:44.658Z,59.10
2023-03-29T22:40:14.220Z,59.60
2023-03-29T22:42:42.448Z,59.80
2023-03-29T22:45:11.977Z,60.10
2023-03-29T22:47:41.554Z,61.30
2023-03-29T22:50:10.871Z,61.10
2023-03-29T22:52:39.136Z,62.10
2023-03-29T22:55:08.441Z,62.20
2023-03-29T22:57:36.679Z,62.60
2023-03-29T23:00:09.414Z,63.10
2023-03-29T23:02:38.005Z,63.70
2023-03-29T23:05:09.252Z,64.10
2023-03-29T23:07:37.743Z,65.20
2023-03-29T23:10:07.537Z,65.60
2023-03-29T23:12:36.552Z,65.90
2023-03-29T23:15:06.295Z,66.20
2023-03-29T23:17:34.766Z,66.40
2023-03-29T23:20:05.893Z,66.70
2023-03-29T23:22:36.443Z,67.20
2023-03-29T23:25:05.379Z,67.60
2023-03-29T23:27:34.716Z,67.60
2023-03-29T23:30:03.045Z,68.10
2023-03-29T23:32:31.433Z,68.30
2023-03-29T23:35:01.232Z,68.70
2023-03-29T23:37:29.381Z,68.90
2023-03-29T23:39:58.954Z,69.40
2023-03-29T23:42:27.185Z,69.40
2023-03-29T23:44:55.884Z,69.40
2023-03-29T23:47:24.282Z,69.70
2023-03-29T23:49:53.195Z,69.50
2023-03-29T23:52:21.425Z,69.40
2023-03-29T23:54:51.283Z,69.30
2023-03-29T23:57:21.510Z,69.20
2023-03-29T23:59:52.662Z,69.40
